sensor_id;sensor_type;location;lat;lon;timestamp;P1;durP1;ratioP1;P2;durP2;ratioP2
3597;SDS011;1813;52.016;8.714;2024-03-25T00:02:29;25.30;;;5.60;;
3597;SDS011;1813;52.016;8.714;2024-03-25T00:05:00;19.67;;;5.00;;
3597;SDS011;1813;52.016;8.714;2024-03-25T00:07:31;16.33;;;4.73;;
3597;SDS011;1813;52.016;8.714;2024-03-25T00:10:01;16.37;;;4.10;;
3597;SDS011;1813;52.016;8.714;2024-03-25T00:12:35;14.40;;;4.33;;
3597;SDS011;1813;52.016;8.714;2024-03-25T00:15:06;17.50;;;4.27;;
3597;SDS011;1813;52.016;8.714;2024-03-25T00:17:38;17.33;;;3.90;;
3597;SDS011;1813;52.016;8.714;2024-03-25T00:20:09;20.80;;;3.87;;
3597;SDS011;1813;52.016;8.714;2024-03-25T00:22:41;17.03;;;5.00;;
3597;SDS011;1813;52.016;8.714;2024-03-25T00:25:12;14.87;;;4.40;;
3597;SDS011;1813;52.016;8.714;2024-03-25T00:27:45;16.93;;;4.10;;
3597;SDS011;1813;52.016;8.714;2024-03-25T00:30:16;12.80;;;4.50;;
3597;SDS011;1813;52.016;8.714;2024-03-25T00:32:47;16.77;;;4.33;;
3597;SDS011;1813;52.016;8.714;2024-03-25T00:35:18;20.93;;;5.20;;
3597;SDS011;1813;52.016;8.714;2024-03-25T00:37:48;15.40;;;4.50;;
3597;SDS011;1813;52.016;8.714;2024-03-25T00:40:19;12.20;;;4.00;;
3597;SDS011;1813;52.016;8.714;2024-03-25T00:42:53;14.43;;;4.37;;
3597;SDS011;1813;52.016;8.714;2024-03-25T00:45:23;14.03;;;4.50;;
3597;SDS011;1813;52.016;8.714;2024-03-25T00:47:55;16.87;;;4.90;;
3597;SDS011;1813;52.016;8.714;2024-03-25T00:50:25;16.27;;;4.37;;
3597;SDS011;1813;52.016;8.714;2024-03-25T00:52:56;15.20;;;4.43;;
3597;SDS011;1813;52.016;8.714;2024-03-25T00:55:27;16.13;;;4.07;;
3597;SDS011;1813;52.016;8.714;2024-03-25T00:58:00;16.67;;;4.57;;
3597;SDS011;1813;52.016;8.714;2024-03-25T01:00:31;22.00;;;5.30;;
3597;SDS011;1813;52.016;8.714;2024-03-25T01:03:02;20.60;;;5.07;;
3597;SDS011;1813;52.016;8.714;2024-03-25T01:05:34;13.30;;;4.17;;
3597;SDS011;1813;52.016;8.714;2024-03-25T01:08:05;17.00;;;4.60;;
3597;SDS011;1813;52.016;8.714;2024-03-25T01:10:37;15.97;;;4.30;;
3597;SDS011;1813;52.016;8.714;2024-03-25T01:13:11;10.80;;;4.20;;
3597;SDS011;1813;52.016;8.714;2024-03-25T01:15:41;22.67;;;4.90;;
3597;SDS011;1813;52.016;8.714;2024-03-25T01:18:12;15.43;;;4.67;;
3597;SDS011;1813;52.016;8.714;2024-03-25T01:20:43;17.63;;;4.47;;
3597;SDS011;1813;52.016;8.714;2024-03-25T01:23:14;14.63;;;4.63;;
3597;SDS011;1813;52.016;8.714;2024-03-25T01:25:45;25.07;;;5.33;;
3597;SDS011;1813;52.016;8.714;2024-03-25T01:28:19;15.63;;;4.07;;
3597;SDS011;1813;52.016;8.714;2024-03-25T01:30:50;11.87;;;4.47;;
3597;SDS011;1813;52.016;8.714;2024-03-25T01:33:20;14.77;;;4.60;;
3597;SDS011;1813;52.016;8.714;2024-03-25T01:35:51;14.47;;;4.07;;
3597;SDS011;1813;52.016;8.714;2024-03-25T01:38:22;14.77;;;4.13;;
3597;SDS011;1813;52.016;8.714;2024-03-25T01:40:55;19.77;;;4.50;;
3597;SDS011;1813;52.016;8.714;2024-03-25T01:43:30;15.80;;;4.20;;
3597;SDS011;1813;52.016;8.714;2024-03-25T01:46:01;23.03;;;4.57;;
3597;SDS011;1813;52.016;8.714;2024-03-25T01:48:32;13.83;;;4.30;;
3597;SDS011;1813;52.016;8.714;2024-03-25T01:51:03;20.60;;;4.33;;
3597;SDS011;1813;52.016;8.714;2024-03-25T01:53:37;16.27;;;4.57;;
3597;SDS011;1813;52.016;8.714;2024-03-25T01:56:08;20.03;;;4.63;;
3597;SDS011;1813;52.016;8.714;2024-03-25T01:58:44;19.83;;;5.30;;
3597;SDS011;1813;52.016;8.714;2024-03-25T02:01:14;14.70;;;4.63;;
3597;SDS011;1813;52.016;8.714;2024-03-25T02:03:46;18.53;;;5.30;;
3597;SDS011;1813;52.016;8.714;2024-03-25T02:06:17;16.53;;;5.10;;
3597;SDS011;1813;52.016;8.714;2024-03-25T02:08:49;14.83;;;4.90;;
3597;SDS011;1813;52.016;8.714;2024-03-25T02:11:22;21.87;;;5.20;;
3597;SDS011;1813;52.016;8.714;2024-03-25T02:13:56;15.97;;;4.40;;
3597;SDS011;1813;52.016;8.714;2024-03-25T02:16:27;17.60;;;5.00;;
3597;SDS011;1813;52.016;8.714;2024-03-25T02:18:57;16.63;;;5.30;;
3597;SDS011;1813;52.016;8.714;2024-03-25T02:21:28;15.73;;;4.80;;
3597;SDS011;1813;52.016;8.714;2024-03-25T02:23:59;21.07;;;5.23;;
3597;SDS011;1813;52.016;8.714;2024-03-25T02:26:36;23.30;;;5.80;;
3597;SDS011;1813;52.016;8.714;2024-03-25T02:29:08;15.23;;;5.13;;
3597;SDS011;1813;52.016;8.714;2024-03-25T02:31:39;18.13;;;5.37;;
3597;SDS011;1813;52.016;8.714;2024-03-25T02:34:10;25.37;;;5.53;;
3597;SDS011;1813;52.016;8.714;2024-03-25T02:36:41;22.40;;;5.30;;
3597;SDS011;1813;52.016;8.714;2024-03-25T02:39:12;20.17;;;4.90;;
3597;SDS011;1813;52.016;8.714;2024-03-25T02:41:45;18.57;;;5.60;;
3597;SDS011;1813;52.016;8.714;2024-03-25T02:44:16;13.57;;;4.93;;
3597;SDS011;1813;52.016;8.714;2024-03-25T02:46:47;14.95;;;5.40;;
3597;SDS011;1813;52.016;8.714;2024-03-25T02:49:19;14.93;;;4.50;;
3597;SDS011;1813;52.016;8.714;2024-03-25T02:51:50;19.47;;;4.90;;
3597;SDS011;1813;52.016;8.714;2024-03-25T02:54:20;13.83;;;4.43;;
3597;SDS011;1813;52.016;8.714;2024-03-25T02:56:54;15.70;;;5.17;;
3597;SDS011;1813;52.016;8.714;2024-03-25T02:59:24;11.53;;;4.10;;
3597;SDS011;1813;52.016;8.714;2024-03-25T03:01:55;19.30;;;4.50;;
3597;SDS011;1813;52.016;8.714;2024-03-25T03:04:26;12.57;;;4.33;;
3597;SDS011;1813;52.016;8.714;2024-03-25T03:07:00;19.50;;;4.80;;
3597;SDS011;1813;52.016;8.714;2024-03-25T03:09:31;15.07;;;4.33;;
3597;SDS011;1813;52.016;8.714;2024-03-25T03:12:04;17.03;;;4.93;;
3597;SDS011;1813;52.016;8.714;2024-03-25T03:14:35;20.03;;;4.97;;
3597;SDS011;1813;52.016;8.714;2024-03-25T03:17:06;17.40;;;5.30;;
3597;SDS011;1813;52.016;8.714;2024-03-25T03:19:37;13.23;;;4.70;;
3597;SDS011;1813;52.016;8.714;2024-03-25T03:22:09;15.20;;;4.97;;
3597;SDS011;1813;52.016;8.714;2024-03-25T03:24:39;12.73;;;4.33;;
3597;SDS011;1813;52.016;8.714;2024-03-25T03:27:13;12.07;;;4.53;;
3597;SDS011;1813;52.016;8.714;2024-03-25T03:29:43;13.00;;;4.27;;
3597;SDS011;1813;52.016;8.714;2024-03-25T03:32:14;12.70;;;4.43;;
3597;SDS011;1813;52.016;8.714;2024-03-25T03:34:45;20.43;;;4.53;;
3597;SDS011;1813;52.016;8.714;2024-03-25T03:37:18;18.07;;;4.53;;
3597;SDS011;1813;52.016;8.714;2024-03-25T03:39:49;17.43;;;4.60;;
3597;SDS011;1813;52.016;8.714;2024-03-25T03:42:22;21.83;;;5.70;;
3597;SDS011;1813;52.016;8.714;2024-03-25T03:44:53;21.37;;;5.53;;
3597;SDS011;1813;52.016;8.714;2024-03-25T03:47:24;21.53;;;5.70;;
3597;SDS011;1813;52.016;8.714;2024-03-25T03:49:54;17.50;;;5.53;;
3597;SDS011;1813;52.016;8.714;2024-03-25T03:52:25;24.83;;;6.10;;
3597;SDS011;1813;52.016;8.714;2024-03-25T03:54:58;19.00;;;6.10;;
3597;SDS011;1813;52.016;8.714;2024-03-25T03:57:34;21.23;;;5.53;;
3597;SDS011;1813;52.016;8.714;2024-03-25T04:00:05;21.03;;;5.70;;
3597;SDS011;1813;52.016;8.714;2024-03-25T04:02:42;22.00;;;5.80;;
3597;SDS011;1813;52.016;8.714;2024-03-25T04:05:13;24.80;;;5.90;;
3597;SDS011;1813;52.016;8.714;2024-03-25T04:07:44;20.40;;;5.43;;
3597;SDS011;1813;52.016;8.714;2024-03-25T04:10:15;20.10;;;5.67;;
3597;SDS011;1813;52.016;8.714;2024-03-25T04:12:48;26.03;;;5.80;;
3597;SDS011;1813;52.016;8.714;2024-03-25T04:15:19;25.40;;;5.30;;
3597;SDS011;1813;52.016;8.714;2024-03-25T04:17:50;20.13;;;5.40;;
3597;SDS011;1813;52.016;8.714;2024-03-25T04:20:21;24.70;;;5.70;;
3597;SDS011;1813;52.016;8.714;2024-03-25T04:22:51;17.90;;;4.90;;
3597;SDS011;1813;52.016;8.714;2024-03-25T04:25:22;32.83;;;6.20;;
3597;SDS011;1813;52.016;8.714;2024-03-25T04:27:56;21.73;;;5.93;;
3597;SDS011;1813;52.016;8.714;2024-03-25T04:30:27;23.67;;;5.60;;
3597;SDS011;1813;52.016;8.714;2024-03-25T04:32:58;21.80;;;5.90;;
3597;SDS011;1813;52.016;8.714;2024-03-25T04:35:29;20.80;;;5.23;;
3597;SDS011;1813;52.016;8.714;2024-03-25T04:37:59;21.37;;;5.70;;
3597;SDS011;1813;52.016;8.714;2024-03-25T04:40:30;20.53;;;5.17;;
3597;SDS011;1813;52.016;8.714;2024-03-25T04:43:03;20.67;;;6.00;;
3597;SDS011;1813;52.016;8.714;2024-03-25T04:45:34;20.63;;;5.60;;
3597;SDS011;1813;52.016;8.714;2024-03-25T04:48:05;28.43;;;6.53;;
3597;SDS011;1813;52.016;8.714;2024-03-25T04:50:37;21.70;;;5.80;;
3597;SDS011;1813;52.016;8.714;2024-03-25T04:53:08;25.17;;;6.40;;
3597;SDS011;1813;52.016;8.714;2024-03-25T04:55:39;24.90;;;6.30;;
3597;SDS011;1813;52.016;8.714;2024-03-25T04:58:12;24.67;;;6.00;;
3597;SDS011;1813;52.016;8.714;2024-03-25T05:00:44;18.97;;;6.20;;
3597;SDS011;1813;52.016;8.714;2024-03-25T05:03:14;24.97;;;6.10;;
3597;SDS011;1813;52.016;8.714;2024-03-25T05:05:45;26.37;;;6.27;;
3597;SDS011;1813;52.016;8.714;2024-03-25T05:08:16;24.13;;;6.30;;
3597;SDS011;1813;52.016;8.714;2024-03-25T05:10:47;22.57;;;6.50;;
3597;SDS011;1813;52.016;8.714;2024-03-25T05:13:20;32.20;;;6.47;;
3597;SDS011;1813;52.016;8.714;2024-03-25T05:15:51;25.43;;;6.30;;
3597;SDS011;1813;52.016;8.714;2024-03-25T05:18:22;25.67;;;5.67;;
3597;SDS011;1813;52.016;8.714;2024-03-25T05:20:53;22.60;;;6.17;;
3597;SDS011;1813;52.016;8.714;2024-03-25T05:23:24;20.80;;;5.90;;
3597;SDS011;1813;52.016;8.714;2024-03-25T05:25:55;21.50;;;6.27;;
3597;SDS011;1813;52.016;8.714;2024-03-25T05:28:28;30.93;;;6.90;;
3597;SDS011;1813;52.016;8.714;2024-03-25T05:31:04;33.13;;;7.03;;
3597;SDS011;1813;52.016;8.714;2024-03-25T05:33:36;30.07;;;6.87;;
3597;SDS011;1813;52.016;8.714;2024-03-25T05:36:08;19.63;;;5.23;;
3597;SDS011;1813;52.016;8.714;2024-03-25T05:38:39;30.37;;;6.60;;
3597;SDS011;1813;52.016;8.714;2024-03-25T05:41:09;26.93;;;7.53;;
3597;SDS011;1813;52.016;8.714;2024-03-25T05:43:43;30.83;;;6.97;;
3597;SDS011;1813;52.016;8.714;2024-03-25T05:46:13;20.70;;;6.17;;
3597;SDS011;1813;52.016;8.714;2024-03-25T05:48:44;20.80;;;6.17;;
3597;SDS011;1813;52.016;8.714;2024-03-25T05:51:15;17.23;;;5.70;;
3597;SDS011;1813;52.016;8.714;2024-03-25T05:53:46;22.73;;;5.93;;
3597;SDS011;1813;52.016;8.714;2024-03-25T05:56:18;23.17;;;6.50;;
3597;SDS011;1813;52.016;8.714;2024-03-25T05:58:51;20.77;;;6.80;;
3597;SDS011;1813;52.016;8.714;2024-03-25T06:01:22;17.00;;;6.10;;
3597;SDS011;1813;52.016;8.714;2024-03-25T06:03:57;22.97;;;5.90;;
3597;SDS011;1813;52.016;8.714;2024-03-25T06:06:28;26.10;;;6.40;;
3597;SDS011;1813;52.016;8.714;2024-03-25T06:08:59;21.23;;;6.03;;
3597;SDS011;1813;52.016;8.714;2024-03-25T06:11:29;20.73;;;6.30;;
3597;SDS011;1813;52.016;8.714;2024-03-25T06:14:04;20.23;;;6.80;;
3597;SDS011;1813;52.016;8.714;2024-03-25T06:16:35;20.10;;;6.73;;
3597;SDS011;1813;52.016;8.714;2024-03-25T06:19:06;21.33;;;6.47;;
3597;SDS011;1813;52.016;8.714;2024-03-25T06:21:37;20.77;;;5.90;;
3597;SDS011;1813;52.016;8.714;2024-03-25T06:24:08;22.90;;;6.73;;
3597;SDS011;1813;52.016;8.714;2024-03-25T06:26:39;25.50;;;6.50;;
3597;SDS011;1813;52.016;8.714;2024-03-25T06:29:13;26.30;;;6.70;;
3597;SDS011;1813;52.016;8.714;2024-03-25T06:31:44;29.43;;;7.23;;
3597;SDS011;1813;52.016;8.714;2024-03-25T06:34:30;30.23;;;7.60;;
3597;SDS011;1813;52.016;8.714;2024-03-25T06:37:01;33.07;;;7.27;;
3597;SDS011;1813;52.016;8.714;2024-03-25T06:39:32;28.60;;;6.20;;
3597;SDS011;1813;52.016;8.714;2024-03-25T06:42:03;18.80;;;6.20;;
3597;SDS011;1813;52.016;8.714;2024-03-25T06:44:37;20.37;;;6.53;;
3597;SDS011;1813;52.016;8.714;2024-03-25T06:47:08;27.53;;;6.40;;
3597;SDS011;1813;52.016;8.714;2024-03-25T06:49:39;25.10;;;7.17;;
3597;SDS011;1813;52.016;8.714;2024-03-25T06:52:09;24.50;;;6.70;;
3597;SDS011;1813;52.016;8.714;2024-03-25T06:54:40;30.17;;;7.47;;
3597;SDS011;1813;52.016;8.714;2024-03-25T06:57:11;28.50;;;7.30;;
3597;SDS011;1813;52.016;8.714;2024-03-25T06:59:44;22.30;;;7.27;;
3597;SDS011;1813;52.016;8.714;2024-03-25T07:02:15;23.17;;;7.00;;
3597;SDS011;1813;52.016;8.714;2024-03-25T07:04:46;26.60;;;7.70;;
3597;SDS011;1813;52.016;8.714;2024-03-25T07:07:17;26.70;;;7.17;;
3597;SDS011;1813;52.016;8.714;2024-03-25T07:09:47;26.27;;;7.90;;
3597;SDS011;1813;52.016;8.714;2024-03-25T07:12:18;27.07;;;8.77;;
3597;SDS011;1813;52.016;8.714;2024-03-25T07:14:52;23.63;;;7.57;;
3597;SDS011;1813;52.016;8.714;2024-03-25T07:17:22;28.07;;;7.50;;
3597;SDS011;1813;52.016;8.714;2024-03-25T07:19:53;29.83;;;8.40;;
3597;SDS011;1813;52.016;8.714;2024-03-25T07:22:24;23.27;;;8.20;;
3597;SDS011;1813;52.016;8.714;2024-03-25T07:24:55;25.00;;;8.10;;
3597;SDS011;1813;52.016;8.714;2024-03-25T07:27:25;26.03;;;8.17;;
3597;SDS011;1813;52.016;8.714;2024-03-25T07:29:59;22.23;;;7.30;;
3597;SDS011;1813;52.016;8.714;2024-03-25T07:32:29;24.73;;;7.93;;
3597;SDS011;1813;52.016;8.714;2024-03-25T07:35:00;31.17;;;8.37;;
3597;SDS011;1813;52.016;8.714;2024-03-25T07:37:31;34.87;;;7.93;;
3597;SDS011;1813;52.016;8.714;2024-03-25T07:40:02;25.63;;;8.23;;
3597;SDS011;1813;52.016;8.714;2024-03-25T07:42:34;27.43;;;7.73;;
3597;SDS011;1813;52.016;8.714;2024-03-25T07:45:08;25.97;;;8.30;;
3597;SDS011;1813;52.016;8.714;2024-03-25T07:47:39;33.17;;;8.00;;
3597;SDS011;1813;52.016;8.714;2024-03-25T07:50:10;23.70;;;8.20;;
3597;SDS011;1813;52.016;8.714;2024-03-25T07:52:41;25.50;;;8.10;;
3597;SDS011;1813;52.016;8.714;2024-03-25T07:55:11;26.53;;;7.47;;
3597;SDS011;1813;52.016;8.714;2024-03-25T07:57:43;23.77;;;7.70;;
3597;SDS011;1813;52.016;8.714;2024-03-25T08:00:16;21.37;;;6.50;;
3597;SDS011;1813;52.016;8.714;2024-03-25T08:02:47;25.30;;;7.50;;
3597;SDS011;1813;52.016;8.714;2024-03-25T08:05:18;23.00;;;7.40;;
3597;SDS011;1813;52.016;8.714;2024-03-25T08:07:49;25.10;;;7.63;;
3597;SDS011;1813;52.016;8.714;2024-03-25T08:10:20;28.83;;;7.90;;
3597;SDS011;1813;52.016;8.714;2024-03-25T08:12:51;30.63;;;7.40;;
3597;SDS011;1813;52.016;8.714;2024-03-25T08:15:24;22.00;;;7.43;;
3597;SDS011;1813;52.016;8.714;2024-03-25T08:17:55;27.20;;;7.80;;
3597;SDS011;1813;52.016;8.714;2024-03-25T08:20:25;21.23;;;7.53;;
3597;SDS011;1813;52.016;8.714;2024-03-25T08:22:56;20.27;;;6.40;;
3597;SDS011;1813;52.016;8.714;2024-03-25T08:25:27;16.30;;;6.40;;
3597;SDS011;1813;52.016;8.714;2024-03-25T08:27:58;22.90;;;7.20;;
3597;SDS011;1813;52.016;8.714;2024-03-25T08:30:31;19.50;;;6.90;;
3597;SDS011;1813;52.016;8.714;2024-03-25T08:33:03;22.03;;;7.07;;
3597;SDS011;1813;52.016;8.714;2024-03-25T08:35:35;20.60;;;6.53;;
3597;SDS011;1813;52.016;8.714;2024-03-25T08:38:06;17.70;;;6.57;;
3597;SDS011;1813;52.016;8.714;2024-03-25T08:40:36;17.10;;;6.23;;
3597;SDS011;1813;52.016;8.714;2024-03-25T08:43:07;22.67;;;7.37;;
3597;SDS011;1813;52.016;8.714;2024-03-25T08:45:41;20.30;;;6.23;;
3597;SDS011;1813;52.016;8.714;2024-03-25T08:48:12;18.20;;;5.93;;
3597;SDS011;1813;52.016;8.714;2024-03-25T08:50:42;17.40;;;5.87;;
3597;SDS011;1813;52.016;8.714;2024-03-25T08:53:13;22.63;;;7.30;;
3597;SDS011;1813;52.016;8.714;2024-03-25T08:55:44;16.40;;;6.10;;
3597;SDS011;1813;52.016;8.714;2024-03-25T08:58:16;13.60;;;5.83;;
3597;SDS011;1813;52.016;8.714;2024-03-25T09:00:49;19.73;;;6.50;;
3597;SDS011;1813;52.016;8.714;2024-03-25T09:03:20;23.47;;;6.10;;
3597;SDS011;1813;52.016;8.714;2024-03-25T09:05:51;18.33;;;5.93;;
3597;SDS011;1813;52.016;8.714;2024-03-25T09:08:22;25.57;;;6.23;;
3597;SDS011;1813;52.016;8.714;2024-03-25T09:10:52;19.67;;;5.60;;
3597;SDS011;1813;52.016;8.714;2024-03-25T09:13:35;23.00;;;6.33;;
3597;SDS011;1813;52.016;8.714;2024-03-25T09:16:09;17.13;;;5.70;;
3597;SDS011;1813;52.016;8.714;2024-03-25T09:18:40;20.53;;;6.23;;
3597;SDS011;1813;52.016;8.714;2024-03-25T09:21:10;21.10;;;5.50;;
3597;SDS011;1813;52.016;8.714;2024-03-25T09:23:41;17.47;;;5.23;;
3597;SDS011;1813;52.016;8.714;2024-03-25T09:26:12;18.27;;;5.47;;
3597;SDS011;1813;52.016;8.714;2024-03-25T09:28:43;28.00;;;5.60;;
3597;SDS011;1813;52.016;8.714;2024-03-25T09:31:17;18.30;;;4.70;;
3597;SDS011;1813;52.016;8.714;2024-03-25T09:33:47;17.00;;;4.80;;
3597;SDS011;1813;52.016;8.714;2024-03-25T09:36:18;20.87;;;5.87;;
3597;SDS011;1813;52.016;8.714;2024-03-25T09:38:50;19.80;;;4.90;;
3597;SDS011;1813;52.016;8.714;2024-03-25T09:41:21;15.60;;;5.20;;
3597;SDS011;1813;52.016;8.714;2024-03-25T09:43:54;18.27;;;4.80;;
3597;SDS011;1813;52.016;8.714;2024-03-25T09:46:27;14.00;;;4.43;;
3597;SDS011;1813;52.016;8.714;2024-03-25T09:48:58;12.03;;;3.27;;
3597;SDS011;1813;52.016;8.714;2024-03-25T09:51:30;17.87;;;4.37;;
3597;SDS011;1813;52.016;8.714;2024-03-25T09:54:01;20.00;;;5.47;;
3597;SDS011;1813;52.016;8.714;2024-03-25T09:56:31;20.60;;;5.90;;
3597;SDS011;1813;52.016;8.714;2024-03-25T09:59:03;19.53;;;6.17;;
3597;SDS011;1813;52.016;8.714;2024-03-25T10:01:37;21.37;;;6.10;;
3597;SDS011;1813;52.016;8.714;2024-03-25T10:04:08;21.67;;;6.50;;
3597;SDS011;1813;52.016;8.714;2024-03-25T10:06:39;18.83;;;5.60;;
3597;SDS011;1813;52.016;8.714;2024-03-25T10:09:10;17.47;;;5.10;;
3597;SDS011;1813;52.016;8.714;2024-03-25T10:11:41;13.07;;;5.30;;
3597;SDS011;1813;52.016;8.714;2024-03-25T10:14:12;9.80;;;4.30;;
3597;SDS011;1813;52.016;8.714;2024-03-25T10:16:48;14.70;;;5.40;;
3597;SDS011;1813;52.016;8.714;2024-03-25T10:19:19;13.60;;;5.07;;
3597;SDS011;1813;52.016;8.714;2024-03-25T10:21:52;14.10;;;5.30;;
3597;SDS011;1813;52.016;8.714;2024-03-25T10:24:38;19.47;;;5.33;;
3597;SDS011;1813;52.016;8.714;2024-03-25T10:27:10;23.20;;;5.23;;
3597;SDS011;1813;52.016;8.714;2024-03-25T10:29:41;20.00;;;4.43;;
3597;SDS011;1813;52.016;8.714;2024-03-25T10:32:15;10.83;;;4.17;;
3597;SDS011;1813;52.016;8.714;2024-03-25T10:34:45;16.07;;;6.50;;
3597;SDS011;1813;52.016;8.714;2024-03-25T10:37:17;17.77;;;5.37;;
3597;SDS011;1813;52.016;8.714;2024-03-25T10:39:49;6.40;;;3.20;;
3597;SDS011;1813;52.016;8.714;2024-03-25T10:42:21;10.30;;;3.57;;
3597;SDS011;1813;52.016;8.714;2024-03-25T10:44:52;10.20;;;3.47;;
3597;SDS011;1813;52.016;8.714;2024-03-25T10:47:26;10.10;;;3.40;;
3597;SDS011;1813;52.016;8.714;2024-03-25T10:49:59;7.90;;;3.30;;
3597;SDS011;1813;52.016;8.714;2024-03-25T10:52:39;10.30;;;3.47;;
3597;SDS011;1813;52.016;8.714;2024-03-25T10:55:10;11.63;;;3.67;;
3597;SDS011;1813;52.016;8.714;2024-03-25T10:57:41;10.60;;;3.83;;
3597;SDS011;1813;52.016;8.714;2024-03-25T11:00:13;8.43;;;3.00;;
3597;SDS011;1813;52.016;8.714;2024-03-25T11:02:48;7.80;;;2.97;;
3597;SDS011;1813;52.016;8.714;2024-03-25T11:05:20;5.27;;;2.87;;
3597;SDS011;1813;52.016;8.714;2024-03-25T11:07:50;9.33;;;3.87;;
3597;SDS011;1813;52.016;8.714;2024-03-25T11:10:28;8.97;;;3.80;;
3597;SDS011;1813;52.016;8.714;2024-03-25T11:13:00;10.77;;;4.17;;
3597;SDS011;1813;52.016;8.714;2024-03-25T11:15:35;10.77;;;3.50;;
3597;SDS011;1813;52.016;8.714;2024-03-25T11:18:13;11.70;;;2.93;;
3597;SDS011;1813;52.016;8.714;2024-03-25T11:20:46;11.13;;;3.20;;
3597;SDS011;1813;52.016;8.714;2024-03-25T11:23:19;12.33;;;3.23;;
3597;SDS011;1813;52.016;8.714;2024-03-25T11:25:54;8.97;;;2.70;;
3597;SDS011;1813;52.016;8.714;2024-03-25T11:28:29;10.33;;;3.47;;
3597;SDS011;1813;52.016;8.714;2024-03-25T11:30:59;3.93;;;2.70;;
3597;SDS011;1813;52.016;8.714;2024-03-25T11:33:33;5.87;;;2.63;;
3597;SDS011;1813;52.016;8.714;2024-03-25T11:36:07;8.13;;;2.70;;
3597;SDS011;1813;52.016;8.714;2024-03-25T11:38:39;11.10;;;3.40;;
3597;SDS011;1813;52.016;8.714;2024-03-25T11:41:10;9.77;;;3.63;;
3597;SDS011;1813;52.016;8.714;2024-03-25T11:43:41;13.20;;;4.03;;
3597;SDS011;1813;52.016;8.714;2024-03-25T11:46:16;9.60;;;3.97;;
3597;SDS011;1813;52.016;8.714;2024-03-25T11:48:50;7.33;;;3.53;;
3597;SDS011;1813;52.016;8.714;2024-03-25T11:51:21;10.73;;;4.00;;
3597;SDS011;1813;52.016;8.714;2024-03-25T11:53:55;8.00;;;3.07;;
3597;SDS011;1813;52.016;8.714;2024-03-25T11:56:26;11.20;;;3.10;;
3597;SDS011;1813;52.016;8.714;2024-03-25T11:58:58;12.63;;;3.63;;
3597;SDS011;1813;52.016;8.714;2024-03-25T12:01:29;12.90;;;3.60;;
3597;SDS011;1813;52.016;8.714;2024-03-25T12:04:11;12.23;;;3.87;;
3597;SDS011;1813;52.016;8.714;2024-03-25T12:06:42;17.27;;;3.97;;
3597;SDS011;1813;52.016;8.714;2024-03-25T12:09:13;10.07;;;3.57;;
3597;SDS011;1813;52.016;8.714;2024-03-25T12:11:59;14.63;;;3.50;;
3597;SDS011;1813;52.016;8.714;2024-03-25T12:14:30;9.80;;;4.00;;
3597;SDS011;1813;52.016;8.714;2024-03-25T12:17:01;14.97;;;3.50;;
3597;SDS011;1813;52.016;8.714;2024-03-25T12:19:34;14.60;;;4.10;;
3597;SDS011;1813;52.016;8.714;2024-03-25T12:22:05;9.77;;;4.00;;
3597;SDS011;1813;52.016;8.714;2024-03-25T12:24:37;15.10;;;4.10;;
3597;SDS011;1813;52.016;8.714;2024-03-25T12:27:08;10.73;;;3.90;;
3597;SDS011;1813;52.016;8.714;2024-03-25T12:29:38;11.33;;;4.10;;
3597;SDS011;1813;52.016;8.714;2024-03-25T12:32:09;10.90;;;4.10;;
3597;SDS011;1813;52.016;8.714;2024-03-25T12:34:44;10.03;;;3.70;;
3597;SDS011;1813;52.016;8.714;2024-03-25T12:37:15;9.53;;;3.70;;
3597;SDS011;1813;52.016;8.714;2024-03-25T12:39:48;13.53;;;4.23;;
3597;SDS011;1813;52.016;8.714;2024-03-25T12:42:19;15.60;;;4.10;;
3597;SDS011;1813;52.016;8.714;2024-03-25T12:44:50;12.20;;;3.70;;
3597;SDS011;1813;52.016;8.714;2024-03-25T12:47:21;6.70;;;3.33;;
3597;SDS011;1813;52.016;8.714;2024-03-25T12:49:55;14.70;;;3.67;;
3597;SDS011;1813;52.016;8.714;2024-03-25T12:52:25;11.83;;;3.77;;
3597;SDS011;1813;52.016;8.714;2024-03-25T12:54:56;12.27;;;3.57;;
3597;SDS011;1813;52.016;8.714;2024-03-25T12:57:27;8.80;;;3.60;;
3597;SDS011;1813;52.016;8.714;2024-03-25T12:59:58;11.43;;;3.63;;
3597;SDS011;1813;52.016;8.714;2024-03-25T13:02:28;13.70;;;4.03;;
3597;SDS011;1813;52.016;8.714;2024-03-25T13:05:02;10.00;;;3.40;;
3597;SDS011;1813;52.016;8.714;2024-03-25T13:07:33;10.20;;;3.90;;
3597;SDS011;1813;52.016;8.714;2024-03-25T13:10:04;8.67;;;3.70;;
3597;SDS011;1813;52.016;8.714;2024-03-25T13:12:36;12.23;;;3.73;;
3597;SDS011;1813;52.016;8.714;2024-03-25T13:15:07;9.93;;;3.40;;
3597;SDS011;1813;52.016;8.714;2024-03-25T13:17:38;6.93;;;3.40;;
3597;SDS011;1813;52.016;8.714;2024-03-25T13:20:12;10.93;;;3.60;;
3597;SDS011;1813;52.016;8.714;2024-03-25T13:22:43;11.67;;;4.00;;
3597;SDS011;1813;52.016;8.714;2024-03-25T13:25:14;11.40;;;3.30;;
3597;SDS011;1813;52.016;8.714;2024-03-25T13:27:45;9.50;;;3.10;;
3597;SDS011;1813;52.016;8.714;2024-03-25T13:30:16;12.10;;;3.50;;
3597;SDS011;1813;52.016;8.714;2024-03-25T13:32:47;9.20;;;3.17;;
3597;SDS011;1813;52.016;8.714;2024-03-25T13:35:20;11.10;;;3.47;;
3597;SDS011;1813;52.016;8.714;2024-03-25T13:37:51;6.00;;;2.90;;
3597;SDS011;1813;52.016;8.714;2024-03-25T13:40:22;12.80;;;3.40;;
3597;SDS011;1813;52.016;8.714;2024-03-25T13:42:52;12.33;;;3.23;;
3597;SDS011;1813;52.016;8.714;2024-03-25T13:45:23;8.70;;;3.37;;
3597;SDS011;1813;52.016;8.714;2024-03-25T13:47:54;6.43;;;3.10;;
3597;SDS011;1813;52.016;8.714;2024-03-25T13:50:28;6.43;;;3.10;;
3597;SDS011;1813;52.016;8.714;2024-03-25T13:52:58;10.00;;;3.33;;
3597;SDS011;1813;52.016;8.714;2024-03-25T13:55:29;9.40;;;3.20;;
3597;SDS011;1813;52.016;8.714;2024-03-25T13:58:00;6.67;;;2.60;;
3597;SDS011;1813;52.016;8.714;2024-03-25T14:00:31;7.93;;;2.57;;
3597;SDS011;1813;52.016;8.714;2024-03-25T14:03:04;6.77;;;2.77;;
3597;SDS011;1813;52.016;8.714;2024-03-25T14:05:38;6.83;;;2.90;;
3597;SDS011;1813;52.016;8.714;2024-03-25T14:08:09;8.30;;;2.77;;
3597;SDS011;1813;52.016;8.714;2024-03-25T14:10:42;8.37;;;2.70;;
3597;SDS011;1813;52.016;8.714;2024-03-25T14:13:13;9.00;;;3.17;;
3597;SDS011;1813;52.016;8.714;2024-03-25T14:15:44;10.43;;;2.70;;
3597;SDS011;1813;52.016;8.714;2024-03-25T14:18:15;6.57;;;2.60;;
3597;SDS011;1813;52.016;8.714;2024-03-25T14:20:49;7.07;;;2.20;;
3597;SDS011;1813;52.016;8.714;2024-03-25T14:23:21;15.67;;;3.07;;
3597;SDS011;1813;52.016;8.714;2024-03-25T14:25:52;8.50;;;2.70;;
3597;SDS011;1813;52.016;8.714;2024-03-25T14:28:22;8.73;;;2.80;;
3597;SDS011;1813;52.016;8.714;2024-03-25T14:30:53;8.20;;;2.70;;
3597;SDS011;1813;52.016;8.714;2024-03-25T14:33:24;5.93;;;2.80;;
3597;SDS011;1813;52.016;8.714;2024-03-25T14:35:58;7.53;;;2.63;;
3597;SDS011;1813;52.016;8.714;2024-03-25T14:38:29;8.93;;;2.47;;
3597;SDS011;1813;52.016;8.714;2024-03-25T14:41:00;7.57;;;2.50;;
3597;SDS011;1813;52.016;8.714;2024-03-25T14:43:30;8.53;;;2.40;;
3597;SDS011;1813;52.016;8.714;2024-03-25T14:46:01;8.73;;;2.33;;
3597;SDS011;1813;52.016;8.714;2024-03-25T14:48:32;9.50;;;2.80;;
3597;SDS011;1813;52.016;8.714;2024-03-25T14:51:06;13.00;;;2.93;;
3597;SDS011;1813;52.016;8.714;2024-03-25T14:53:37;7.33;;;2.60;;
3597;SDS011;1813;52.016;8.714;2024-03-25T14:56:08;10.00;;;2.80;;
3597;SDS011;1813;52.016;8.714;2024-03-25T14:58:38;8.90;;;2.83;;
3597;SDS011;1813;52.016;8.714;2024-03-25T15:01:09;8.70;;;2.60;;
3597;SDS011;1813;52.016;8.714;2024-03-25T15:03:40;5.63;;;2.40;;
3597;SDS011;1813;52.016;8.714;2024-03-25T15:06:13;6.67;;;2.53;;
3597;SDS011;1813;52.016;8.714;2024-03-25T15:08:44;8.83;;;2.47;;
3597;SDS011;1813;52.016;8.714;2024-03-25T15:11:15;10.53;;;2.80;;
3597;SDS011;1813;52.016;8.714;2024-03-25T15:13:46;7.67;;;2.70;;
3597;SDS011;1813;52.016;8.714;2024-03-25T15:16:16;5.90;;;2.20;;
3597;SDS011;1813;52.016;8.714;2024-03-25T15:18:47;7.80;;;2.53;;
3597;SDS011;1813;52.016;8.714;2024-03-25T15:21:21;7.30;;;2.70;;
3597;SDS011;1813;52.016;8.714;2024-03-25T15:23:52;10.70;;;3.03;;
3597;SDS011;1813;52.016;8.714;2024-03-25T15:26:23;7.23;;;2.27;;
3597;SDS011;1813;52.016;8.714;2024-03-25T15:28:53;5.60;;;2.67;;
3597;SDS011;1813;52.016;8.714;2024-03-25T15:31:26;5.50;;;2.40;;